Time;durP1;ratioP1;P1;durP2;ratioP2;P2;SDS_P1;SDS_P2;PMS_P1;PMS_P2;Temp;Humidity;BMP_temperature;BMP_pressure;BME280_temperature;BME280_humidity;BME280_pressure;Samples;Min_cycle;Max_cycle;Signal;HPM_P1;HPM_P2
2021/04/16 00:01:39;;;;;;;16.40;12.95;;;;;;;3.05;83.55;99627.25;469123;1176;114428;-73
2021/04/16 00:11:44;;;;;;;15.80;13.85;;;;;;;3.10;83.42;99616.73;469707;1177;116076;-70
2021/04/16 00:21:49;;;;;;;14.10;11.55;;;;;;;3.13;83.49;99603.68;469320;1178;114565;-68
2021/04/16 00:31:55;;;;;;;16.00;13.90;;;;;;;3.05;83.50;99595.30;469350;1177;114565;-68
2021/04/16 00:42:00;;;;;;;14.10;11.20;;;;;;;3.07;83.74;99589.16;469233;1177;114763;-70
2021/04/16 00:52:08;;;;;;;15.10;12.63;;;;;;;3.05;83.90;99577.13;469296;1177;114710;-68
2021/04/16 01:02:13;;;;;;;13.20;11.30;;;;;;;3.07;83.97;99581.38;469181;1177;114635;-70
2021/04/16 01:12:18;;;;;;;15.25;13.55;;;;;;;3.14;83.95;99575.97;469276;1177;114592;-70
2021/04/16 01:22:29;;;;;;;15.15;12.95;;;;;;;3.21;84.09;99572.28;469190;1177;114651;-68
2021/04/16 01:32:35;;;;;;;13.53;11.90;;;;;;;3.28;83.79;99562.53;468980;1177;114511;-69
2021/04/16 01:42:40;;;;;;;15.70;11.75;;;;;;;3.36;83.72;99563.95;469239;1177;114997;-69
2021/04/16 01:52:44;;;;;;;14.20;12.40;;;;;;;3.42;83.78;99567.25;469329;1176;114961;-70
2021/04/16 02:02:48;;;;;;;17.40;12.73;;;;;;;3.43;83.76;99569.78;469263;1177;115158;-70
2021/04/16 02:12:53;;;;;;;14.70;12.90;;;;;;;3.39;83.92;99560.41;469766;1177;114758;-70
2021/04/16 02:22:57;;;;;;;13.35;11.80;;;;;;;3.48;83.96;99544.52;469905;1177;114814;-70
2021/04/16 02:33:05;;;;;;;12.15;10.90;;;;;;;3.61;84.07;99538.89;469529;1177;114100;-70
2021/04/16 02:43:11;;;;;;;14.30;12.50;;;;;;;3.69;83.75;99523.84;469267;1176;114698;-70
2021/04/16 02:53:16;;;;;;;11.60;10.10;;;;;;;3.71;83.96;99537.66;468957;1177;114865;-73
2021/04/16 03:03:20;;;;;;;14.00;10.60;;;;;;;3.72;83.81;99538.48;468868;1176;114574;-71
2021/04/16 03:13:26;;;;;;;10.30;9.20;;;;;;;3.69;83.91;99542.03;469348;1177;114394;-68
2021/04/16 03:23:31;;;;;;;12.37;11.10;;;;;;;3.63;83.79;99526.69;469241;1177;114372;-67
2021/04/16 03:33:37;;;;;;;17.20;14.80;;;;;;;3.63;83.94;99524.92;469466;1177;114951;-68
2021/04/16 03:43:43;;;;;;;19.70;15.07;;;;;;;3.59;83.59;99536.33;469087;1177;114734;-69
2021/04/16 03:53:48;;;;;;;21.30;15.85;;;;;;;3.55;84.01;99539.09;469669;1177;114835;-68
2021/04/16 04:03:52;;;;;;;21.45;16.50;;;;;;;3.45;83.96;99539.41;469771;1177;114556;-70
2021/04/16 04:13:57;;;;;;;19.10;14.50;;;;;;;3.49;83.85;99547.95;469488;1177;114835;-69
2021/04/16 04:24:02;;;;;;;14.75;11.90;;;;;;;3.47;83.81;99548.02;469256;1177;114792;-70
2021/04/16 04:34:06;;;;;;;17.10;12.20;;;;;;;3.49;83.87;99547.95;469536;1177;114798;-70
2021/04/16 04:44:12;;;;;;;10.60;9.50;;;;;;;3.48;83.80;99548.85;469195;1177;114772;-71
2021/04/16 04:54:19;;;;;;;10.65;8.95;;;;;;;3.47;84.13;99548.02;469471;1177;114413;-70
2021/04/16 05:04:23;;;;;;;8.17;7.47;;;;;;;3.54;83.99;99559.03;469331;1177;114569;-71
2021/04/16 05:14:29;;;;;;;11.80;8.17;;;;;;;3.56;83.91;99545.98;469312;1177;114154;-67
2021/04/16 05:24:34;;;;;;;18.60;13.80;;;;;;;3.58;83.72;99555.41;469289;1178;114229;-67
2021/04/16 05:34:41;;;;;;;13.35;11.95;;;;;;;3.58;83.81;99558.02;469458;1177;114568;-70
2021/04/16 05:44:45;;;;;;;14.05;9.80;;;;;;;3.60;83.94;99543.22;468728;1177;114597;-67
2021/04/16 05:54:50;;;;;;;9.20;8.30;;;;;;;3.61;83.57;99550.10;469221;1176;114379;-70
2021/04/16 06:04:56;;;;;;;14.10;10.10;;;;;;;3.65;83.40;99545.65;469324;1177;115825;-65
2021/04/16 06:15:01;;;;;;;9.37;7.90;;;;;;;3.61;83.62;99550.10;469161;1177;114218;-65
2021/04/16 06:25:09;;;;;;;12.30;8.40;;;;;;;3.61;83.68;99547.50;468992;1177;114251;-64
2021/04/16 06:35:14;;;;;;;;;;;;;;;3.63;83.83;99550.06;469047;1177;115188;-64
2021/04/16 06:45:23;;;;;;;13.30;9.53;;;;;;;3.62;83.94;99556.16;468956;1176;100184;-65
2021/04/16 06:55:30;;;;;;;11.63;9.90;;;;;;;3.70;83.74;99553.28;468190;1177;114681;-65
2021/04/16 07:05:38;;;;;;;14.63;11.07;;;;;;;3.67;83.34;99556.83;468885;1177;114892;-64
2021/04/16 07:15:43;;;;;;;;;;;;;;;3.78;83.28;99557.28;476925;1177;116088;-64
2021/04/16 07:26:05;;;;;;;18.75;12.25;;;;;;;3.85;83.22;99559.67;453434;1177;20002490;-64
2021/04/16 07:36:25;;;;;;;17.05;11.80;;;;;;;3.85;83.42;99565.70;469173;1177;115552;-67
2021/04/16 07:46:37;;;;;;;16.27;11.93;;;;;;;3.91;83.04;99575.02;469088;1177;114674;-67
2021/04/16 07:56:43;;;;;;;14.35;11.25;;;;;;;3.96;83.20;99570.52;468771;1176;114554;-67
2021/04/16 08:06:50;;;;;;;17.00;10.70;;;;;;;3.94;82.88;99574.92;468991;1177;114564;-62
2021/04/16 08:16:58;;;;;;;11.50;10.15;;;;;;;3.96;83.06;99577.44;476013;1177;114535;-61
2021/04/16 08:27:13;;;;;;;11.60;9.00;;;;;;;3.98;82.94;99579.09;469189;1176;114317;-64
2021/04/16 08:37:25;;;;;;;13.00;8.40;;;;;;;4.06;82.97;99573.61;469228;1177;113999;-64
2021/04/16 08:47:33;;;;;;;11.70;8.43;;;;;;;4.15;83.11;99580.20;469120;1177;114116;-62
2021/04/16 08:57:46;;;;;;;9.10;7.90;;;;;;;4.21;82.39;99561.79;469685;1176;114932;-62
2021/04/16 09:07:56;;;;;;;10.45;7.20;;;;;;;4.31;82.54;99568.33;469836;1177;113823;-62
2021/04/16 09:18:23;;;;;;;9.00;7.70;;;;;;;4.36;82.43;99568.16;468978;1177;114589;-60
2021/04/16 09:28:36;;;;;;;;;;;;;;;4.52;82.10;99568.41;469360;1177;114904;-62
2021/04/16 09:39:12;;;;;;;6.75;5.55;;;;;;;4.73;81.90;99565.83;469795;1177;100507;-71
2021/04/16 10:00:39;;;;;;;5.80;5.20;;;;;;;4.82;80.60;99575.88;470145;1174;64417;-72
2021/04/16 10:10:43;;;;;;;7.97;5.67;;;;;;;4.81;80.46;99581.16;469833;1175;113293;-72
2021/04/16 10:21:08;;;;;;;6.87;5.33;;;;;;;4.80;80.76;99576.87;469726;1174;113463;-74
2021/04/16 12:46:45;;;;;;;11.93;8.87;;;;;;;3.82;83.08;99593.56;470251;1174;113805;-69
2021/04/16 12:56:50;;;;;;;10.35;8.20;;;;;;;3.92;83.09;99585.36;470514;1174;113523;-66
2021/04/16 13:06:58;;;;;;;12.20;7.95;;;;;;;3.90;83.00;99568.98;470379;1174;114143;-69
2021/04/16 13:17:02;;;;;;;11.60;9.45;;;;;;;4.10;83.33;99559.61;469977;1174;113881;-67
2021/04/16 13:27:10;;;;;;;15.10;10.13;;;;;;;4.29;83.31;99554.55;470100;1174;114873;-64
2021/04/16 13:37:18;;;;;;;11.33;9.50;;;;;;;4.25;83.15;99555.55;469819;1175;114952;-64
2021/04/16 13:47:25;;;;;;;10.95;9.95;;;;;;;4.43;83.06;99558.36;469699;1175;113513;-62
2021/04/16 13:57:29;;;;;;;15.20;10.50;;;;;;;4.57;82.74;99556.05;470000;1176;114573;-62
2021/04/16 14:07:34;;;;;;;12.33;10.83;;;;;;;4.55;82.61;99557.02;469696;1176;114407;-73
2021/04/16 14:17:42;;;;;;;14.25;12.20;;;;;;;4.45;83.07;99559.14;469501;1174;114880;-69
2021/04/16 14:27:47;;;;;;;12.57;11.27;;;;;;;4.41;83.19;99560.18;470009;1176;113834;-70
2021/04/16 14:37:51;;;;;;;13.77;12.37;;;;;;;4.47;83.85;99552.13;469598;1174;113659;-69
2021/04/16 14:47:56;;;;;;;13.83;11.47;;;;;;;4.36;83.27;99562.95;470007;1174;113817;-64
2021/04/16 14:58:01;;;;;;;14.65;10.80;;;;;;;4.33;83.62;99570.88;469853;1175;114611;-65
2021/04/16 15:08:11;;;;;;;11.23;9.60;;;;;;;4.27;84.22;99571.10;469735;1174;114571;-65
2021/04/16 15:18:16;;;;;;;12.50;11.17;;;;;;;4.35;83.51;99571.66;469290;1174;113762;-64
2021/04/16 15:28:26;;;;;;;10.80;9.70;;;;;;;4.29;83.95;99569.29;469485;1174;114111;-69
2021/04/16 15:48:52;;;;;;;14.17;9.70;;;;;;;4.41;83.73;99570.58;469624;1174;114116;-66
2021/04/16 15:58:57;;;;;;;15.30;12.13;;;;;;;4.40;83.87;99572.32;469800;1174;114182;-67
2021/04/16 16:09:01;;;;;;;10.67;9.30;;;;;;;4.32;84.13;99572.63;470145;1174;113910;-67
2021/04/16 16:19:05;;;;;;;10.40;9.25;;;;;;;4.33;84.02;99583.88;470086;1173;113736;-67
2021/04/16 16:29:17;;;;;;;5.50;4.90;;;;;;;4.24;82.87;99597.22;470192;1173;114587;-69
2021/04/16 16:39:20;;;;;;;4.03;3.37;;;;;;;4.03;82.82;99603.14;469917;1173;113875;-65
2021/04/16 16:49:26;;;;;;;4.15;2.60;;;;;;;3.78;82.29;99601.44;454675;1174;20002589;-71
2021/04/16 16:59:32;;;;;;;2.90;2.40;;;;;;;3.57;82.38;99605.66;472887;1174;114014;-64
2021/04/16 17:09:37;;;;;;;3.73;2.80;;;;;;;3.60;82.29;99607.30;470418;1175;113567;-64
2021/04/16 17:19:42;;;;;;;5.20;3.90;;;;;;;3.69;82.52;99619.94;471620;1174;113977;-64
2021/04/16 17:29:50;;;;;;;2.70;2.50;;;;;;;3.49;82.25;99623.23;469647;1174;113931;-63
2021/04/16 17:39:54;;;;;;;3.20;2.80;;;;;;;3.23;81.42;99635.35;470382;1174;114128;-62
2021/04/16 17:49:57;;;;;;;3.93;3.40;;;;;;;3.14;82.18;99638.24;470287;1174;113715;-62
2021/04/16 18:00:01;;;;;;;6.70;4.60;;;;;;;3.12;82.67;99643.50;469548;1174;114006;-62
2021/04/16 18:10:10;;;;;;;3.25;2.75;;;;;;;3.19;82.58;99655.36;469726;1174;114950;-60
2021/04/16 18:20:15;;;;;;;4.47;2.77;;;;;;;3.10;82.16;99653.05;469506;1176;113500;-62
2021/04/16 18:30:23;;;;;;;2.97;2.43;;;;;;;3.00;82.36;99659.43;470341;1174;113737;-62
2021/04/16 18:40:32;;;;;;;3.57;2.50;;;;;;;3.03;82.58;99670.56;470524;1174;113410;-61
2021/04/16 18:50:37;;;;;;;3.20;2.30;;;;;;;3.02;82.06;99673.23;469999;1174;113535;-61
2021/04/16 19:00:45;;;;;;;3.40;2.70;;;;;;;2.91;82.50;99669.22;469628;1174;114190;-60
2021/04/16 19:10:50;;;;;;;5.23;4.57;;;;;;;2.90;82.58;99670.13;470244;1174;114235;-67
2021/04/16 19:20:58;;;;;;;4.00;3.50;;;;;;;2.97;83.24;99664.72;470459;1174;113968;-71
2021/04/16 19:31:05;;;;;;;8.75;5.50;;;;;;;2.98;83.09;99667.28;470586;1174;114622;-71
2021/04/16 19:41:12;;;;;;;6.90;6.20;;;;;;;3.14;83.26;99667.64;471473;1173;113623;-71
2021/04/16 20:22:52;;;;;;;10.43;7.83;;;;;;;3.48;83.52;99663.08;470169;1173;113348;-72
2021/04/16 20:32:57;;;;;;;9.00;8.10;;;;;;;3.53;83.28;99673.31;470535;1173;113484;-68
2021/04/16 20:43:07;;;;;;;11.10;8.83;;;;;;;3.64;83.24;99671.20;470716;1174;114450;-68
2021/04/16 20:53:11;;;;;;;9.75;8.30;;;;;;;3.64;82.86;99671.20;470045;1173;114112;-67
2021/04/16 21:03:33;;;;;;;9.87;8.83;;;;;;;3.68;83.22;99664.99;470266;1174;114728;-66
2021/04/16 21:13:40;;;;;;;11.10;10.03;;;;;;;3.72;83.38;99664.00;470333;1174;113474;-68
2021/04/16 21:23:48;;;;;;;10.75;8.50;;;;;;;3.61;83.32;99661.76;470272;1174;114053;-66
2021/04/16 21:33:52;;;;;;;13.33;10.87;;;;;;;3.57;82.98;99667.97;471614;1174;114005;-67
2021/04/16 21:43:57;;;;;;;9.63;8.73;;;;;;;3.53;83.58;99673.31;470482;1174;114213;-69
2021/04/16 21:54:12;;;;;;;9.25;8.25;;;;;;;3.57;83.78;99672.30;471021;1174;113578;-66
2021/04/16 22:04:19;;;;;;;10.10;9.00;;;;;;;3.47;83.69;99670.04;471100;1174;113693;-61
2021/04/16 22:14:29;;;;;;;12.07;9.80;;;;;;;3.39;83.83;99666.84;470670;1173;114369;-60
2021/04/16 22:24:39;;;;;;;10.33;9.23;;;;;;;3.36;84.20;99678.16;469660;1174;114012;-60
2021/04/16 22:34:45;;;;;;;14.60;11.30;;;;;;;3.32;83.94;99678.31;470110;1174;113926;-60
2021/04/16 22:44:53;;;;;;;12.63;10.70;;;;;;;3.28;84.52;99681.92;470367;1174;113701;-61
2021/04/16 22:54:58;;;;;;;12.00;10.10;;;;;;;3.28;84.22;99680.16;470421;1173;114008;-59
2021/04/16 23:05:19;;;;;;;13.05;11.65;;;;;;;3.35;85.07;99675.64;470120;1173;114123;-58
2021/04/16 23:15:28;;;;;;;14.37;12.40;;;;;;;3.28;84.40;99680.16;470113;1174;115364;-59
2021/04/16 23:25:34;;;;;;;15.23;12.58;;;;;;;3.37;84.75;99671.24;470091;1174;114989;-63
2021/04/16 23:35:37;;;;;;;20.23;15.43;;;;;;;3.29;84.83;99670.63;470099;1174;114439;-67
2021/04/16 23:45:40;;;;;;;19.10;14.37;;;;;;;3.29;84.63;99655.92;470334;1174;115256;-68
2021/04/16 23:55:45;;;;;;;16.77;13.33;;;;;;;3.40;85.07;99655.55;471419;1173;115470;-67
